Time;durP1;ratioP1;P1;durP2;ratioP2;P2;SDS_P1;SDS_P2;PMS_P1;PMS_P2;Temp;Humidity;BMP_temperature;BMP_pressure;BME280_temperature;BME280_humidity;BME280_pressure;Samples;Min_cycle;Max_cycle;Signal;HPM_P1;HPM_P2
2023/04/29 00:01:19;;;;;;;1.90;1.48;;;;;;;12.78;91.66;100311.22;5083607;28;20062;-61
2023/04/29 00:03:45;;;;;;;1.00;0.90;;;;;;;12.73;91.79;100314.28;5062182;28;20036;-61
2023/04/29 00:06:10;;;;;;;2.47;1.27;;;;;;;12.72;91.39;100313.50;5070181;28;20035;-61
2023/04/29 00:08:36;;;;;;;2.15;1.13;;;;;;;12.72;91.87;100323.56;5082929;28;20494;-58
2023/04/29 00:11:01;;;;;;;2.10;1.13;;;;;;;12.67;92.03;100305.78;5079299;28;20363;-58
2023/04/29 00:13:27;;;;;;;1.60;0.85;;;;;;;12.74;91.88;100308.50;5079634;28;20064;-61
2023/04/29 00:15:52;;;;;;;3.00;1.52;;;;;;;12.65;92.16;100305.38;5088646;28;20040;-55
2023/04/29 00:18:18;;;;;;;4.93;1.92;;;;;;;12.68;92.20;100308.09;5085933;28;20099;-60
2023/04/29 00:20:43;;;;;;;1.75;1.30;;;;;;;12.65;92.09;100311.56;5086739;28;20063;-61
2023/04/29 00:23:08;;;;;;;0.75;0.75;;;;;;;12.61;91.97;100316.16;5081078;28;20040;-59
2023/04/29 00:25:34;;;;;;;1.40;1.00;;;;;;;12.61;92.45;100316.16;5082602;28;20079;-60
2023/04/29 00:28:20;;;;;;;2.33;1.60;;;;;;;12.56;92.48;100313.03;5081603;28;20038;-57
2023/04/29 00:30:46;;;;;;;2.88;1.40;;;;;;;12.60;92.58;100320.00;5016465;28;20119;-60
2023/04/29 00:33:11;;;;;;;1.30;1.15;;;;;;;12.60;92.10;100328.09;5022628;28;20559;-58
2023/04/29 00:35:37;;;;;;;1.10;1.00;;;;;;;12.61;91.62;100318.84;5021051;28;20192;-61
2023/04/29 00:38:02;;;;;;;1.40;1.13;;;;;;;12.47;92.53;100323.38;5002199;28;20030;-58
2023/04/29 00:40:28;;;;;;;1.90;1.17;;;;;;;12.40;93.20;100321.41;5009136;28;20047;-61
2023/04/29 00:42:53;;;;;;;2.20;0.90;;;;;;;12.40;93.35;100318.72;5014942;28;20058;-59
2023/04/29 00:45:19;;;;;;;1.20;0.80;;;;;;;12.39;92.87;100327.94;5007156;28;20029;-58
2023/04/29 00:47:44;;;;;;;2.83;0.95;;;;;;;12.40;93.32;100329.53;5018039;28;20457;-56
2023/04/29 00:50:10;;;;;;;2.65;1.25;;;;;;;12.40;92.97;100332.22;5020837;28;20037;-55
2023/04/29 00:52:37;;;;;;;3.35;0.95;;;;;;;12.34;93.83;100330.22;5007953;28;20041;-57
2023/04/29 00:55:04;;;;;;;1.00;0.93;;;;;;;12.38;93.85;100334.50;5022003;28;20849;-57
2023/04/29 00:57:29;;;;;;;2.25;1.38;;;;;;;12.44;93.76;100340.34;5013111;28;20060;-56
2023/04/29 00:59:57;;;;;;;1.50;1.40;;;;;;;12.43;93.39;100336.84;4996920;28;20044;-59
2023/04/29 01:02:24;;;;;;;2.83;1.67;;;;;;;12.45;93.76;100345.38;5012991;28;20506;-58
2023/04/29 01:04:50;;;;;;;2.65;1.02;;;;;;;12.24;94.65;100341.72;5008843;28;20040;-53
2023/04/29 01:07:20;;;;;;;2.00;1.38;;;;;;;12.27;94.81;100343.69;5029788;28;20414;-60
2023/04/29 01:10:04;;;;;;;1.73;0.98;;;;;;;12.23;94.27;100353.69;5072037;28;20067;-59
2023/04/29 01:12:53;;;;;;;1.20;0.98;;;;;;;12.25;94.30;100354.06;5070845;28;20074;-56
2023/04/29 01:15:29;;;;;;;1.38;1.13;;;;;;;12.31;94.38;100349.88;5067373;28;20086;-56
2023/04/29 01:18:19;;;;;;;2.75;1.30;;;;;;;12.18;94.82;100357.47;5067709;28;20028;-55
2023/04/29 01:20:45;;;;;;;12.32;1.38;;;;;;;12.17;94.33;100358.63;5049405;28;20576;-58
2023/04/29 01:23:11;;;;;;;3.97;1.13;;;;;;;12.24;95.00;100358.69;5060550;28;20111;-56
2023/04/29 01:25:39;;;;;;;2.42;1.35;;;;;;;12.32;94.26;100365.72;5054896;28;20034;-58
2023/04/29 01:28:33;;;;;;;0.95;0.95;;;;;;;12.43;94.13;100371.97;5064797;28;20028;-57
2023/04/29 01:31:17;;;;;;;3.70;1.48;;;;;;;12.45;93.81;100374.28;5066193;28;20040;-58
2023/04/29 01:33:46;;;;;;;8.20;1.25;;;;;;;12.42;94.53;100373.13;5082818;28;20430;-56
2023/04/29 01:36:25;;;;;;;2.13;1.42;;;;;;;12.45;93.96;100380.47;5064218;28;20470;-58
2023/04/29 01:39:30;;;;;;;3.05;1.08;;;;;;;12.42;93.12;100375.84;5064195;28;20105;-58
2023/04/29 01:42:22;;;;;;;1.42;1.13;;;;;;;12.37;94.07;100378.06;5064532;28;20035;-58
2023/04/29 01:44:52;;;;;;;1.98;1.17;;;;;;;12.32;93.86;100381.91;5064137;28;20394;-58
2023/04/29 01:47:20;;;;;;;2.90;1.38;;;;;;;12.32;93.83;100381.91;5060146;28;20052;-58
2023/04/29 01:49:49;;;;;;;2.63;1.15;;;;;;;12.37;93.84;100395.06;5054831;28;20123;-57
2023/04/29 01:52:15;;;;;;;1.45;1.35;;;;;;;12.34;94.03;100387.72;5061587;28;20768;-60
2023/04/29 01:54:48;;;;;;;1.73;1.02;;;;;;;12.31;94.28;100396.53;5057068;28;20086;-56
2023/04/29 01:57:15;;;;;;;4.65;1.70;;;;;;;12.38;94.30;100395.84;5062162;28;20051;-60
2023/04/29 01:59:52;;;;;;;1.52;1.42;;;;;;;12.34;93.86;100397.72;5083652;28;20515;-60
2023/04/29 02:02:29;;;;;;;2.20;1.60;;;;;;;12.37;94.46;100400.47;5083303;28;20043;-59
2023/04/29 02:05:06;;;;;;;2.72;1.63;;;;;;;12.40;94.29;100401.66;5063466;28;20067;-60
2023/04/29 02:07:32;;;;;;;3.80;1.90;;;;;;;12.37;93.92;100405.06;5063385;28;20574;-59
2023/04/29 02:09:57;;;;;;;3.38;2.00;;;;;;;12.37;94.05;100400.47;5059972;28;20202;-61
2023/04/29 02:12:23;;;;;;;3.08;1.73;;;;;;;12.40;94.28;100404.34;5082391;28;20483;-58
2023/04/29 02:14:52;;;;;;;2.55;1.38;;;;;;;12.43;93.75;100412.47;5067659;28;20027;-56
2023/04/29 02:17:17;;;;;;;2.03;1.38;;;;;;;12.39;93.56;100414.38;5073979;28;20644;-57
2023/04/29 02:19:43;;;;;;;1.73;1.25;;;;;;;12.39;93.91;100414.38;5069269;28;20031;-58
2023/04/29 02:22:11;;;;;;;3.58;1.90;;;;;;;12.42;93.45;100413.63;5047676;28;20027;-61
2023/04/29 02:24:37;;;;;;;2.80;1.70;;;;;;;12.35;93.90;100415.50;5064609;28;20611;-57
2023/04/29 02:27:05;;;;;;;2.72;1.50;;;;;;;12.41;93.86;100420.19;5059348;28;20054;-57
2023/04/29 02:29:32;;;;;;;3.05;1.25;;;;;;;12.38;93.51;100428.25;5053647;28;20527;-56
2023/04/29 02:31:57;;;;;;;2.58;1.70;;;;;;;12.42;93.29;100429.06;5070010;28;20032;-57
2023/04/29 02:34:23;;;;;;;2.47;1.65;;;;;;;12.41;93.77;100428.28;5091032;28;20109;-59
2023/04/29 02:36:49;;;;;;;1.95;1.42;;;;;;;12.45;93.46;100434.50;5064441;28;20479;-59
2023/04/29 02:39:19;;;;;;;1.40;1.15;;;;;;;12.45;93.41;100437.19;5071495;28;20043;-58
2023/04/29 02:41:45;;;;;;;3.28;1.83;;;;;;;12.44;93.27;100446.44;5065117;28;20130;-58
2023/04/29 02:44:11;;;;;;;5.30;2.15;;;;;;;12.36;93.87;100447.53;5088483;28;20502;-59
2023/04/29 02:46:38;;;;;;;2.38;1.65;;;;;;;12.38;93.72;100434.44;5076320;28;20078;-60
2023/04/29 02:49:04;;;;;;;3.63;1.60;;;;;;;12.37;93.86;100437.47;5072882;28;20039;-60
2023/04/29 02:51:30;;;;;;;5.50;2.15;;;;;;;12.50;92.83;100446.88;5071375;28;20035;-58
2023/04/29 02:53:55;;;;;;;4.10;2.20;;;;;;;12.44;92.58;100451.84;5089728;28;20032;-60
2023/04/29 02:56:22;;;;;;;3.15;1.33;;;;;;;12.43;93.16;100452.19;5055520;28;20135;-60
2023/04/29 02:58:48;;;;;;;2.17;1.35;;;;;;;12.34;93.13;100463.31;5063883;28;20024;-60
2023/04/29 03:01:13;;;;;;;2.25;1.45;;;;;;;12.25;93.36;100459.38;5065605;28;20031;-60
2023/04/29 03:03:39;;;;;;;3.42;1.85;;;;;;;12.15;93.99;100458.13;5069496;28;20020;-60
2023/04/29 03:06:04;;;;;;;2.35;1.63;;;;;;;12.14;94.24;100464.66;5090129;28;20092;-60
2023/04/29 03:08:30;;;;;;;6.35;1.58;;;;;;;12.19;94.08;100463.56;5058082;28;20032;-60
2023/04/29 03:10:55;;;;;;;1.20;1.10;;;;;;;12.15;94.44;100463.53;5090109;28;20040;-59
2023/04/29 03:13:22;;;;;;;1.65;1.40;;;;;;;12.25;94.14;100464.78;5074788;28;20027;-60
2023/04/29 03:15:48;;;;;;;5.05;2.00;;;;;;;12.15;93.64;100470.84;5054839;28;20031;-60
2023/04/29 03:18:13;;;;;;;3.45;1.65;;;;;;;12.14;94.43;100471.97;5061477;28;20056;-60
2023/04/29 03:20:39;;;;;;;2.08;1.42;;;;;;;12.11;94.36;100461.91;5050731;28;20398;-58
2023/04/29 03:23:04;;;;;;;2.58;1.10;;;;;;;12.19;94.05;100464.34;5085852;28;20028;-60
2023/04/29 03:25:30;;;;;;;2.42;1.50;;;;;;;12.15;93.89;100466.22;5086876;28;20032;-60
2023/04/29 03:27:56;;;;;;;1.30;1.08;;;;;;;12.17;93.61;100474.72;5065741;28;20024;-60
2023/04/29 03:30:21;;;;;;;4.65;2.13;;;;;;;12.17;93.53;100479.34;5080652;28;20099;-60
2023/04/29 03:32:50;;;;;;;2.42;1.60;;;;;;;12.10;93.78;100488.13;5068546;28;20039;-60
2023/04/29 03:35:16;;;;;;;3.47;1.75;;;;;;;12.10;93.61;100487.38;5066624;28;20668;-59
2023/04/29 03:37:54;;;;;;;4.95;2.25;;;;;;;12.07;93.86;100494.28;5053786;28;20020;-60
2023/04/29 03:40:23;;;;;;;5.80;1.85;;;;;;;12.12;93.88;100493.94;5068514;28;20081;-59
2023/04/29 03:42:49;;;;;;;5.97;2.03;;;;;;;12.09;93.82;100497.38;5067835;28;20041;-60
2023/04/29 03:45:16;;;;;;;1.48;1.30;;;;;;;12.06;94.29;100498.09;5062557;28;20498;-60
2023/04/29 03:47:42;;;;;;;6.75;2.83;;;;;;;12.01;93.87;100503.06;5083192;28;20039;-60
2023/04/29 03:50:09;;;;;;;3.80;2.20;;;;;;;12.02;94.22;100504.63;5054151;28;20090;-60
2023/04/29 03:52:35;;;;;;;2.60;1.98;;;;;;;12.03;94.12;100509.66;5058388;28;20040;-60
2023/04/29 03:55:05;;;;;;;2.53;1.33;;;;;;;11.99;94.04;100500.72;5059534;28;20457;-57
2023/04/29 03:57:32;;;;;;;4.53;2.15;;;;;;;11.94;94.24;100513.78;5064495;28;20039;-60
2023/04/29 03:59:57;;;;;;;3.40;2.00;;;;;;;11.95;94.87;100515.31;5057980;28;20024;-60
2023/04/29 04:02:23;;;;;;;4.05;2.17;;;;;;;11.96;94.16;100516.88;5065217;28;20028;-60
2023/04/29 04:04:49;;;;;;;3.10;1.67;;;;;;;11.96;93.94;100516.88;5066942;28;20035;-58
2023/04/29 04:07:15;;;;;;;4.78;2.30;;;;;;;11.92;93.92;100519.53;5067491;28;20036;-60
2023/04/29 04:10:07;;;;;;;2.30;1.70;;;;;;;11.87;94.09;100533.34;5077135;28;20036;-60
2023/04/29 04:12:32;;;;;;;4.32;1.40;;;;;;;11.86;93.68;100525.63;5050322;28;20034;-60
2023/04/29 04:14:58;;;;;;;2.55;1.88;;;;;;;11.76;94.15;100538.59;5065863;28;20066;-60
2023/04/29 04:17:23;;;;;;;3.80;1.92;;;;;;;11.81;94.10;100548.28;5083400;28;20031;-60
2023/04/29 04:19:50;;;;;;;3.22;1.55;;;;;;;11.83;93.89;100554.09;5068280;28;20375;-60
2023/04/29 04:22:15;;;;;;;1.73;1.05;;;;;;;11.87;93.61;100557.63;5064231;28;20126;-60
2023/04/29 04:24:50;;;;;;;2.30;1.15;;;;;;;11.85;94.53;100551.81;5070017;28;20130;-60
2023/04/29 04:27:15;;;;;;;1.98;1.58;;;;;;;11.85;94.77;100557.22;5080724;28;20111;-60
2023/04/29 04:29:46;;;;;;;2.25;1.40;;;;;;;11.86;95.03;100553.38;5062701;28;20037;-60
2023/04/29 04:32:15;;;;;;;6.28;1.60;;;;;;;11.90;94.96;100564.22;5063503;28;20032;-60
2023/04/29 04:34:40;;;;;;;2.90;1.77;;;;;;;11.93;94.58;100579.66;5063842;28;20454;-60
2023/04/29 04:37:07;;;;;;;2.50;1.83;;;;;;;11.97;94.35;100575.09;5059353;28;20050;-60
2023/04/29 04:39:37;;;;;;;2.95;1.45;;;;;;;11.94;94.19;100582.03;5067457;28;20364;-59
2023/04/29 04:42:03;;;;;;;2.67;1.70;;;;;;;12.03;94.08;100584.44;5061575;28;20665;-60
2023/04/29 04:44:31;;;;;;;2.13;1.25;;;;;;;12.03;93.90;100585.22;5060791;28;20709;-60
2023/04/29 04:47:01;;;;;;;5.50;1.50;;;;;;;12.05;93.77;100588.34;5052055;28;20415;-59
2023/04/29 04:49:45;;;;;;;1.05;1.00;;;;;;;12.03;93.72;100589.84;5064624;28;20516;-60
2023/04/29 04:52:11;;;;;;;2.35;1.55;;;;;;;12.04;93.64;100586.75;5065733;28;20027;-60
2023/04/29 04:54:37;;;;;;;2.35;1.55;;;;;;;12.02;94.10;100594.44;5055050;28;20127;-60
2023/04/29 04:57:11;;;;;;;3.78;1.48;;;;;;;11.94;94.00;100603.63;5067587;28;20347;-60
2023/04/29 04:59:36;;;;;;;1.52;1.42;;;;;;;11.96;94.00;100608.63;5063901;28;20039;-60
2023/04/29 05:02:02;;;;;;;3.22;1.73;;;;;;;11.95;94.40;100610.56;5055874;28;20032;-59
2023/04/29 05:04:27;;;;;;;5.03;1.95;;;;;;;11.92;94.52;100621.31;5064297;28;20749;-60
2023/04/29 05:06:53;;;;;;;3.25;1.83;;;;;;;11.94;93.80;100624.41;5052962;28;20123;-60
2023/04/29 05:09:22;;;;;;;2.30;1.70;;;;;;;11.98;94.08;100622.53;5050064;28;20111;-57
2023/04/29 05:11:47;;;;;;;2.80;1.63;;;;;;;12.07;94.02;100620.34;5070417;28;20034;-60
2023/04/29 05:14:16;;;;;;;2.95;1.98;;;;;;;12.18;93.72;100632.84;5065738;28;20103;-59
2023/04/29 05:16:44;;;;;;;5.90;2.35;;;;;;;12.19;93.70;100633.63;5083153;28;20028;-60
2023/04/29 05:19:09;;;;;;;2.83;1.60;;;;;;;12.20;93.21;100635.19;5067442;28;20028;-59
2023/04/29 05:21:38;;;;;;;1.77;1.65;;;;;;;12.20;93.15;100633.25;5063374;28;20040;-59
2023/04/29 05:24:05;;;;;;;1.75;1.17;;;;;;;12.12;92.81;100650.50;5065572;28;20025;-59
2023/04/29 05:26:30;;;;;;;3.55;2.15;;;;;;;12.03;92.91;100647.31;5079983;28;20028;-58
2023/04/29 05:29:00;;;;;;;3.08;1.83;;;;;;;12.03;93.54;100652.69;5062153;28;20063;-59
2023/04/29 05:31:27;;;;;;;4.55;1.90;;;;;;;11.98;94.24;100657.63;5067126;28;20043;-59
2023/04/29 05:33:53;;;;;;;2.45;2.17;;;;;;;11.98;93.55;100661.09;5069397;28;20029;-58
2023/04/29 05:36:19;;;;;;;2.72;1.58;;;;;;;11.99;94.03;100664.56;5066686;28;20028;-59
2023/04/29 05:38:45;;;;;;;3.40;1.98;;;;;;;12.04;93.91;100654.25;5090346;28;20032;-58
2023/04/29 05:41:13;;;;;;;2.20;1.60;;;;;;;12.09;93.49;100663.94;5090140;28;20490;-59
2023/04/29 05:43:57;;;;;;;8.32;2.83;;;;;;;12.17;92.66;100671.81;5085947;28;20448;-60
2023/04/29 05:46:22;;;;;;;2.60;1.58;;;;;;;12.17;93.50;100671.00;5067613;28;20032;-60
2023/04/29 05:48:48;;;;;;;3.00;1.50;;;;;;;12.22;93.66;100668.00;5070352;28;20509;-60
2023/04/29 05:51:14;;;;;;;3.47;2.05;;;;;;;12.20;93.98;100676.47;5089649;28;20081;-60
2023/04/29 05:53:40;;;;;;;1.50;1.27;;;;;;;12.25;94.18;100673.44;5064214;28;20124;-59
2023/04/29 05:56:07;;;;;;;1.92;1.27;;;;;;;12.44;93.87;100673.31;5067325;28;20131;-59
2023/04/29 05:58:34;;;;;;;4.78;2.38;;;;;;;12.77;93.63;100671.78;5065790;28;20023;-59
2023/04/29 06:01:00;;;;;;;2.83;1.70;;;;;;;12.97;93.08;100684.00;5067069;28;20028;-58
2023/04/29 06:03:29;;;;;;;4.18;2.15;;;;;;;13.24;92.53;100680.06;5060160;28;20035;-60
2023/04/29 06:06:15;;;;;;;6.72;2.40;;;;;;;13.36;92.24;100687.88;5082783;28;20056;-59
2023/04/29 06:09:05;;;;;;;3.15;1.92;;;;;;;13.53;90.55;100692.69;5072293;28;20448;-59
2023/04/29 06:11:32;;;;;;;3.70;2.08;;;;;;;13.63;90.07;100692.00;5068837;28;20078;-59
2023/04/29 06:14:00;;;;;;;3.55;1.35;;;;;;;13.80;89.10;100694.06;5069596;28;20077;-59
2023/04/29 06:16:25;;;;;;;3.13;1.55;;;;;;;13.67;86.39;100695.50;5070080;28;20032;-59
2023/04/29 06:18:52;;;;;;;3.92;2.25;;;;;;;13.90;87.33;100706.16;5070865;28;20016;-60
2023/04/29 06:21:18;;;;;;;1.70;1.42;;;;;;;14.20;86.64;100710.22;5070068;28;20039;-57
2023/04/29 06:23:44;;;;;;;2.75;1.50;;;;;;;14.30;85.09;100712.25;5073020;28;20027;-58
2023/04/29 06:26:15;;;;;;;;;;;;;;;14.41;84.91;100718.53;5062263;28;20044;-60
2023/04/29 06:28:40;;;;;;;1.27;0.90;;;;;;;14.59;83.99;100721.31;5067915;28;19916;-58
2023/04/29 06:31:27;;;;;;;3.05;1.27;;;;;;;14.72;83.28;100727.19;5059064;28;20025;-60
2023/04/29 06:33:57;;;;;;;3.08;1.20;;;;;;;14.84;83.02;100724.13;4972416;28;20486;-59
2023/04/29 06:36:24;;;;;;;2.30;1.48;;;;;;;14.93;81.38;100721.84;4973327;28;20034;-59
2023/04/29 06:38:52;;;;;;;2.08;1.27;;;;;;;15.09;81.02;100727.72;4972496;28;20394;-58
2023/04/29 06:41:52;;;;;;;1.17;0.88;;;;;;;15.08;80.78;100726.16;4968979;28;20042;-61
2023/04/29 06:44:23;;;;;;;1.77;1.05;;;;;;;15.19;78.58;100726.97;4984532;28;20153;-60
2023/04/29 06:47:12;;;;;;;2.30;1.17;;;;;;;15.29;78.51;100737.84;4983104;28;20058;-61
2023/04/29 06:49:56;;;;;;;2.22;1.17;;;;;;;15.38;77.65;100742.91;4980068;28;20089;-59
2023/04/29 06:52:21;;;;;;;1.42;0.85;;;;;;;15.47;76.09;100748.78;4982179;28;20050;-60
2023/04/29 06:54:47;;;;;;;1.30;0.75;;;;;;;15.46;75.96;100747.22;4985151;28;20089;-60
2023/04/29 06:57:12;;;;;;;1.13;0.75;;;;;;;15.64;75.23;100742.59;4972506;28;20039;-60
2023/04/29 06:59:38;;;;;;;4.43;0.85;;;;;;;15.67;74.84;100749.97;4988561;28;20756;-57
2023/04/29 07:02:03;;;;;;;0.30;0.30;;;;;;;15.65;74.31;100755.03;4973498;28;20031;-60
2023/04/29 07:04:29;;;;;;;2.42;0.95;;;;;;;15.76;73.90;100763.94;4970819;28;20050;-59
2023/04/29 07:06:55;;;;;;;3.50;1.38;;;;;;;15.86;73.99;100775.97;4987906;28;20039;-60
2023/04/29 07:09:26;;;;;;;1.42;0.93;;;;;;;16.05;74.71;100768.22;4984657;28;20077;-60
2023/04/29 07:11:51;;;;;;;1.02;0.55;;;;;;;16.26;73.97;100768.22;5069483;28;20497;-60
2023/04/29 07:14:18;;;;;;;3.30;1.20;;;;;;;16.40;73.62;100769.34;5071828;28;20064;-60
2023/04/29 07:16:44;;;;;;;0.95;0.70;;;;;;;16.59;72.35;100766.25;5056584;28;20059;-61
2023/04/29 07:19:09;;;;;;;1.52;0.90;;;;;;;16.75;69.72;100772.03;5066795;28;20034;-60
2023/04/29 07:21:35;;;;;;;1.00;0.60;;;;;;;16.85;69.21;100773.94;5088457;28;20035;-60
2023/04/29 07:24:03;;;;;;;1.83;1.08;;;;;;;17.01;67.76;100771.56;5064161;28;20466;-60
2023/04/29 07:26:29;;;;;;;0.82;0.57;;;;;;;17.02;67.64;100779.31;5083117;28;20062;-60
2023/04/29 07:28:54;;;;;;;0.52;0.47;;;;;;;17.09;68.33;100775.81;5064290;28;20024;-60
2023/04/29 07:31:22;;;;;;;1.75;0.80;;;;;;;17.15;67.13;100776.91;5067661;28;20482;-60
2023/04/29 07:33:48;;;;;;;0.82;0.60;;;;;;;17.41;65.95;100792.75;5051154;28;20058;-60
2023/04/29 07:36:15;;;;;;;0.68;0.65;;;;;;;17.45;65.55;100793.50;5059405;28;20040;-60
2023/04/29 07:38:40;;;;;;;0.98;0.70;;;;;;;17.60;65.38;100797.72;5063511;28;20020;-60
2023/04/29 07:41:06;;;;;;;1.17;0.80;;;;;;;17.86;64.10;100801.84;5053177;28;20064;-60
2023/04/29 07:43:32;;;;;;;2.50;0.88;;;;;;;17.69;62.79;100803.50;5060115;28;20052;-60
2023/04/29 07:45:58;;;;;;;0.73;0.47;;;;;;;17.68;62.72;100795.72;5058843;28;20067;-61
2023/04/29 07:48:24;;;;;;;1.77;1.17;;;;;;;17.95;63.53;100808.41;5065050;28;20088;-60
2023/04/29 07:50:50;;;;;;;0.57;0.57;;;;;;;17.91;63.02;100810.38;5059983;28;20053;-61
2023/04/29 07:53:17;;;;;;;1.27;0.70;;;;;;;17.94;60.64;100808.81;5063243;28;20036;-61
2023/04/29 07:55:42;;;;;;;0.90;0.50;;;;;;;18.02;61.07;100818.47;5044951;28;20123;-57
2023/04/29 07:58:11;;;;;;;1.65;0.73;;;;;;;18.08;60.17;100807.94;5064062;28;20118;-58
2023/04/29 08:00:37;;;;;;;0.90;0.60;;;;;;;18.32;59.67;100809.66;5054589;28;20029;-57
2023/04/29 08:03:04;;;;;;;0.90;0.52;;;;;;;18.46;59.45;100828.66;5045631;28;20036;-57
2023/04/29 08:05:32;;;;;;;0.40;0.35;;;;;;;18.61;59.49;100824.59;5077508;28;20078;-57
2023/04/29 08:07:57;;;;;;;1.30;0.50;;;;;;;18.80;58.63;100824.03;5071002;28;20477;-58
2023/04/29 08:10:25;;;;;;;2.38;0.85;;;;;;;18.86;58.37;100836.06;5057047;28;20032;-59
2023/04/29 08:12:50;;;;;;;1.67;0.90;;;;;;;18.97;58.82;100839.44;5062521;28;20031;-55
2023/04/29 08:15:17;;;;;;;1.38;0.68;;;;;;;19.10;57.04;100840.47;5062754;28;20028;-61
2023/04/29 08:17:43;;;;;;;0.98;0.68;;;;;;;19.16;57.01;100838.84;5074590;28;20521;-53
2023/04/29 08:20:09;;;;;;;1.42;0.68;;;;;;;19.20;56.45;100855.94;5060243;28;20021;-58
2023/04/29 08:22:35;;;;;;;1.77;0.60;;;;;;;19.17;55.03;100850.53;5080332;28;20073;-59
2023/04/29 08:25:02;;;;;;;1.05;0.77;;;;;;;19.43;55.72;100861.56;5086835;28;20036;-60
2023/04/29 08:27:27;;;;;;;0.85;0.32;;;;;;;19.36;55.00;100863.59;5072873;28;20555;-57
2023/04/29 08:29:56;;;;;;;0.82;0.40;;;;;;;19.53;54.67;100871.56;5081987;28;20040;-60
2023/04/29 08:32:21;;;;;;;0.65;0.47;;;;;;;19.47;55.95;100875.19;5072981;28;20028;-60
2023/04/29 08:34:48;;;;;;;1.73;0.80;;;;;;;19.66;56.09;100872.59;5074343;28;20032;-58
2023/04/29 08:37:14;;;;;;;0.57;0.57;;;;;;;20.09;54.56;100889.16;5084551;28;20080;-57
2023/04/29 08:39:42;;;;;;;0.80;0.50;;;;;;;20.26;53.17;100887.38;5085037;28;20386;-57
2023/04/29 08:42:10;;;;;;;2.03;0.60;;;;;;;20.26;53.92;100892.84;5088400;28;20059;-55
2023/04/29 08:44:36;;;;;;;1.80;0.80;;;;;;;20.28;53.37;100895.94;5072865;28;20115;-55
2023/04/29 08:47:02;;;;;;;1.60;0.90;;;;;;;20.21;52.76;100901.53;5081903;28;20188;-56
2023/04/29 08:49:28;;;;;;;0.63;0.57;;;;;;;20.43;51.64;100902.72;5080687;28;20043;-59
2023/04/29 08:51:54;;;;;;;1.48;1.00;;;;;;;20.37;51.99;100901.66;5083205;28;20040;-57
2023/04/29 08:54:19;;;;;;;1.23;0.70;;;;;;;20.45;51.74;100908.56;5080913;28;20032;-60
2023/04/29 08:56:46;;;;;;;2.05;0.90;;;;;;;20.63;51.36;100898.09;5079391;28;20044;-61
2023/04/29 08:59:15;;;;;;;1.20;0.50;;;;;;;20.63;51.35;100900.84;5078841;28;20032;-61
2023/04/29 09:01:43;;;;;;;3.40;0.90;;;;;;;20.73;51.47;100905.34;5083524;28;20035;-57
2023/04/29 09:04:19;;;;;;;0.68;0.40;;;;;;;20.61;49.38;100905.97;5075398;28;20047;-59
2023/04/29 09:06:46;;;;;;;0.93;0.63;;;;;;;20.63;48.52;100904.34;5082291;28;20185;-60
2023/04/29 09:09:14;;;;;;;1.02;0.68;;;;;;;20.85;49.86;100904.00;5084735;28;20044;-60
2023/04/29 09:11:40;;;;;;;1.10;0.68;;;;;;;21.06;49.81;100903.63;5083410;28;20032;-61
2023/04/29 09:14:08;;;;;;;1.10;1.00;;;;;;;21.13;48.78;100911.72;5080603;28;20178;-61
2023/04/29 09:16:36;;;;;;;0.50;0.50;;;;;;;21.51;48.88;100910.94;5063878;28;20044;-60
2023/04/29 09:19:01;;;;;;;1.00;0.50;;;;;;;21.69;48.48;100915.28;5084015;28;20032;-60
2023/04/29 09:21:28;;;;;;;1.70;1.05;;;;;;;21.60;47.99;100913.13;5083293;28;20043;-57
2023/04/29 09:23:56;;;;;;;1.08;0.63;;;;;;;21.60;47.67;100912.34;5086362;28;20066;-56
2023/04/29 09:26:23;;;;;;;0.80;0.68;;;;;;;21.74;48.42;100910.06;5079155;28;20036;-58
2023/04/29 09:29:17;;;;;;;0.98;0.70;;;;;;;21.96;46.91;100916.69;5077880;28;20384;-60
2023/04/29 09:31:43;;;;;;;0.75;0.50;;;;;;;21.96;46.77;100918.66;5073361;28;20040;-58
2023/04/29 09:34:13;;;;;;;1.02;0.60;;;;;;;22.00;47.11;100924.84;5083957;28;20045;-63
2023/04/29 09:36:55;;;;;;;0.95;0.70;;;;;;;22.16;46.32;100925.63;5068763;28;20493;-59
2023/04/29 09:39:22;;;;;;;0.93;0.50;;;;;;;22.33;46.14;100926.44;5075565;28;20035;-61
2023/04/29 09:41:51;;;;;;;0.95;0.47;;;;;;;22.52;45.72;100931.06;5078183;28;20044;-56
2023/04/29 09:44:18;;;;;;;0.70;0.40;;;;;;;22.67;45.34;100935.03;5082684;28;20031;-58
2023/04/29 09:46:54;;;;;;;1.58;0.60;;;;;;;22.60;45.47;100935.22;5088928;28;20126;-57
2023/04/29 09:49:25;;;;;;;0.90;0.70;;;;;;;22.59;45.66;100932.91;5081385;28;20048;-59
2023/04/29 09:51:59;;;;;;;3.20;0.70;;;;;;;22.71;44.71;100935.72;5082897;28;20032;-59
2023/04/29 09:54:29;;;;;;;1.45;0.98;;;;;;;22.68;45.16;100936.59;5081643;28;20028;-59
2023/04/29 09:56:56;;;;;;;1.05;0.60;;;;;;;22.83;44.86;100931.50;5083829;28;20032;-59
2023/04/29 09:59:23;;;;;;;1.83;1.20;;;;;;;23.08;44.44;100929.66;5074501;28;20027;-61
2023/04/29 10:01:50;;;;;;;0.88;0.63;;;;;;;23.13;44.26;100942.88;5077395;28;20036;-61
2023/04/29 10:04:17;;;;;;;1.33;0.90;;;;;;;23.27;44.29;100942.50;5064031;28;20050;-61
2023/04/29 10:06:45;;;;;;;0.82;0.57;;;;;;;23.15;43.84;100951.44;5089743;28;20093;-59
2023/04/29 10:09:17;;;;;;;0.80;0.60;;;;;;;23.21;44.21;100938.72;5091420;28;20069;-59
2023/04/29 10:11:49;;;;;;;0.70;0.70;;;;;;;23.28;43.57;100948.78;5090117;28;20035;-59
2023/04/29 10:14:26;;;;;;;3.30;0.88;;;;;;;23.21;44.19;100946.97;5079208;28;20039;-61
2023/04/29 10:17:23;;;;;;;1.40;0.43;;;;;;;22.90;44.89;100940.34;5086417;28;20067;-58
2023/04/29 10:19:53;;;;;;;0.90;0.60;;;;;;;22.94;44.59;100940.22;5078288;28;20036;-59
2023/04/29 10:22:28;;;;;;;2.13;0.70;;;;;;;22.72;45.26;100942.00;5085023;28;20112;-61
2023/04/29 10:24:56;;;;;;;0.85;0.70;;;;;;;22.80;45.81;100932.38;5084992;28;20389;-58
2023/04/29 10:27:23;;;;;;;1.42;1.10;;;;;;;22.68;44.82;100942.09;5083852;28;20409;-59
2023/04/29 10:29:51;;;;;;;1.15;0.95;;;;;;;23.08;45.39;100937.91;5082165;28;20031;-61
2023/04/29 10:32:20;;;;;;;1.60;0.90;;;;;;;23.23;45.62;100938.28;5090335;28;20032;-61
2023/04/29 10:34:47;;;;;;;0.90;0.73;;;;;;;23.06;44.57;100931.28;5085604;28;20058;-58
2023/04/29 10:37:15;;;;;;;1.50;0.68;;;;;;;23.07;44.39;100930.84;5083546;28;20099;-61
2023/04/29 10:39:58;;;;;;;0.90;0.70;;;;;;;23.06;44.33;100932.06;5073006;28;20036;-60
2023/04/29 10:42:47;;;;;;;0.80;0.52;;;;;;;23.14;43.94;100935.41;5087494;28;20036;-59
2023/04/29 10:45:33;;;;;;;1.63;1.00;;;;;;;23.04;42.91;100937.22;5084440;28;20035;-56
2023/04/29 10:48:05;;;;;;;0.77;0.55;;;;;;;22.72;43.48;100942.78;5086126;28;20814;-55
2023/04/29 10:50:47;;;;;;;1.00;0.95;;;;;;;22.96;44.05;100935.84;5077358;28;20109;-55
2023/04/29 10:53:20;;;;;;;1.42;0.80;;;;;;;23.27;43.80;100939.75;5085622;28;20096;-58
2023/04/29 10:55:47;;;;;;;3.00;1.38;;;;;;;23.40;43.54;100942.59;5081430;28;20036;-58
2023/04/29 10:58:45;;;;;;;0.93;0.30;;;;;;;23.32;43.05;100945.94;5083155;28;20068;-59
2023/04/29 11:01:15;;;;;;;0.75;0.52;;;;;;;23.28;43.19;100938.56;5079707;28;21663;-54
2023/04/29 11:03:57;;;;;;;0.75;0.40;;;;;;;23.38;42.32;100942.25;5082805;28;20039;-51
2023/04/29 11:06:24;;;;;;;;;;;;;;;23.22;40.78;100954.03;5079060;28;20036;-56
2023/04/29 11:09:25;;;;;;;0.80;0.43;;;;;;;23.44;41.27;100959.72;5058666;28;19924;-53
2023/04/29 11:12:00;;;;;;;0.70;0.55;;;;;;;23.66;41.56;100957.94;5058195;28;20043;-54
2023/04/29 11:14:35;;;;;;;1.05;0.70;;;;;;;24.20;40.69;100960.69;5082023;28;20135;-55
2023/04/29 11:17:12;;;;;;;0.75;0.52;;;;;;;24.22;39.67;100958.25;5083522;28;20032;-51
2023/04/29 11:19:43;;;;;;;0.70;0.63;;;;;;;24.20;39.75;100963.44;5079809;28;20016;-52
2023/04/29 11:22:13;;;;;;;0.88;0.50;;;;;;;24.12;40.69;100979.41;5079915;28;20032;-54
2023/04/29 11:24:52;;;;;;;0.70;0.50;;;;;;;23.78;40.16;100970.19;5108856;22;20064;-67
2023/04/29 11:27:19;;;;;;;0.80;0.60;;;;;;;23.69;41.09;100965.31;5060941;28;20135;-67
2023/04/29 11:29:46;;;;;;;1.00;0.90;;;;;;;23.78;41.71;100972.94;5048060;28;20036;-67
2023/04/29 11:32:12;;;;;;;1.42;0.80;;;;;;;23.70;40.49;100979.84;5049884;28;20036;-67
2023/04/29 11:34:37;;;;;;;2.78;0.90;;;;;;;24.04;39.78;100977.31;5063437;28;20086;-67
2023/04/29 11:37:04;;;;;;;1.02;0.55;;;;;;;23.76;40.71;100976.13;5040801;28;20512;-67